Time;durP1;ratioP1;P1;durP2;ratioP2;P2;SDS_P1;SDS_P2;PMS_P1;PMS_P2;Temp;Humidity;BMP_temperature;BMP_pressure;BME280_temperature;BME280_humidity;BME280_pressure;Samples;Min_cycle;Max_cycle;Signal;HPM_P1;HPM_P2
2022/04/22 00:00:46;;;;;;;18.58;15.45;;;9.30;99.90;;;;;;5071303;28;20192;-68
2022/04/22 00:03:14;;;;;;;14.23;12.93;;;9.30;99.90;;;;;;5071517;28;20242;-69
2022/04/22 00:05:42;;;;;;;14.55;13.10;;;9.20;99.90;;;;;;5071746;28;20238;-69
2022/04/22 00:08:09;;;;;;;17.92;16.02;;;9.30;99.90;;;;;;5071818;28;20261;-69
2022/04/22 00:11:28;;;;;;;16.73;15.23;;;9.20;99.90;;;;;;5071526;28;20326;-69
2022/04/22 00:13:27;;;;;;;17.55;15.32;;;9.20;99.90;;;;;;5059472;28;20755;-69
2022/04/22 00:15:55;;;;;;;17.27;15.57;;;9.20;99.90;;;;;;5071685;28;20653;-69
2022/04/22 00:18:23;;;;;;;17.35;15.65;;;9.20;99.90;;;;;;5071565;28;20203;-69
2022/04/22 00:20:51;;;;;;;18.30;16.40;;;9.10;99.90;;;;;;5071433;28;20204;-69
2022/04/22 00:23:19;;;;;;;18.83;16.65;;;9.10;99.90;;;;;;5070849;28;20280;-69
2022/04/22 00:25:48;;;;;;;17.92;16.13;;;9.10;99.90;;;;;;5071455;28;20280;-69
2022/04/22 00:28:16;;;;;;;16.80;15.05;;;9.00;99.90;;;;;;5071588;28;20265;-69
2022/04/22 00:30:44;;;;;;;17.73;15.93;;;9.10;99.90;;;;;;5071689;28;20219;-69
2022/04/22 00:33:12;;;;;;;18.27;16.33;;;9.00;99.90;;;;;;5109995;22;20260;-61
2022/04/22 00:35:41;;;;;;;18.77;16.90;;;9.00;99.90;;;;;;5104091;27;20227;-61
2022/04/22 00:38:08;;;;;;;21.80;17.98;;;8.90;99.90;;;;;;5132084;27;20244;-61
2022/04/22 00:40:36;;;;;;;20.15;18.05;;;8.90;99.90;;;;;;5113319;27;20202;-61
2022/04/22 00:43:16;;;;;;;19.27;17.15;;;8.80;99.90;;;;;;5106558;27;20641;-61
2022/04/22 00:45:44;;;;;;;19.27;17.27;;;8.90;99.90;;;;;;5103624;28;20255;-61
2022/04/22 00:48:12;;;;;;;19.33;17.33;;;8.80;99.90;;;;;;5111364;28;20840;-61
2022/04/22 00:50:41;;;;;;;20.83;17.15;;;8.90;99.90;;;;;;5104536;28;20338;-62
2022/04/22 00:53:09;;;;;;;20.27;18.27;;;8.80;99.90;;;;;;5090972;28;20283;-61
2022/04/22 00:55:40;;;;;;;19.48;16.80;;;8.90;99.90;;;;;;5091686;28;20206;-61
2022/04/22 00:58:08;;;;;;;19.42;17.45;;;8.80;99.90;;;;;;5091783;28;20198;-61
2022/04/22 01:00:38;;;;;;;19.95;17.80;;;8.80;99.90;;;;;;5091245;28;20223;-61
2022/04/22 01:03:06;;;;;;;20.70;18.70;;;8.70;99.90;;;;;;5091094;28;20309;-61
2022/04/22 01:11:07;;;;;;;20.55;18.58;;;8.70;99.90;;;;;;5086391;28;20660;-61
2022/04/22 01:13:35;;;;;;;20.02;18.13;;;8.80;99.90;;;;;;5087026;28;20270;-61
2022/04/22 01:16:05;;;;;;;19.75;17.55;;;8.80;99.90;;;;;;5110923;28;20396;-61
2022/04/22 01:18:33;;;;;;;19.42;17.42;;;8.80;99.90;;;;;;5111011;28;20276;-61
2022/04/22 01:21:03;;;;;;;22.80;19.75;;;8.80;99.90;;;;;;5110862;28;20612;-61
2022/04/22 01:23:34;;;;;;;19.60;17.60;;;8.90;99.90;;;;;;5107377;28;20245;-60
2022/04/22 01:26:02;;;;;;;20.20;17.08;;;8.80;99.90;;;;;;5110923;28;20205;-60
2022/04/22 01:28:31;;;;;;;22.50;20.27;;;9.00;99.90;;;;;;5099067;28;20198;-61
2022/04/22 01:31:00;;;;;;;20.80;18.70;;;8.90;99.90;;;;;;5091191;28;20321;-61
2022/04/22 01:33:28;;;;;;;19.92;17.92;;;8.80;99.90;;;;;;5090387;28;20309;-61
2022/04/22 01:35:56;;;;;;;22.02;19.92;;;8.80;99.90;;;;;;5091326;28;20619;-61
2022/04/22 01:38:25;;;;;;;21.05;19.08;;;8.70;99.90;;;;;;5091370;28;20238;-61
2022/04/22 01:40:54;;;;;;;20.73;18.73;;;8.70;99.90;;;;;;5090477;28;20335;-61
2022/04/22 01:43:22;;;;;;;21.25;19.15;;;8.70;99.90;;;;;;5088024;28;20243;-61
2022/04/22 01:45:52;;;;;;;20.55;18.40;;;8.80;99.90;;;;;;5092464;28;20293;-61
2022/04/22 01:48:20;;;;;;;22.40;19.85;;;8.80;99.90;;;;;;5084752;28;20616;-61
2022/04/22 01:50:48;;;;;;;22.63;20.42;;;8.80;99.90;;;;;;5084221;28;20219;-61
2022/04/22 01:53:17;;;;;;;19.52;17.52;;;8.80;99.90;;;;;;5083713;28;20276;-61
2022/04/22 01:55:47;;;;;;;21.45;19.40;;;8.80;99.90;;;;;;5084220;28;20320;-61
2022/04/22 01:58:14;;;;;;;22.42;20.15;;;8.80;99.90;;;;;;5090989;28;20301;-61
2022/04/22 02:00:42;;;;;;;21.60;19.45;;;8.80;99.90;;;;;;5090884;28;20199;-61
2022/04/22 02:03:10;;;;;;;20.88;18.67;;;8.80;99.90;;;;;;5090334;28;20575;-61
2022/04/22 02:05:40;;;;;;;20.23;18.33;;;8.80;99.90;;;;;;5091090;28;20210;-61
2022/04/22 02:08:08;;;;;;;22.08;19.65;;;8.70;99.90;;;;;;5084801;28;20264;-61
2022/04/22 02:10:36;;;;;;;22.85;20.45;;;8.70;99.90;;;;;;5090565;28;20723;-60
2022/04/22 02:13:05;;;;;;;22.02;19.70;;;8.60;99.90;;;;;;5085488;28;20665;-61
2022/04/22 02:15:33;;;;;;;22.95;20.65;;;8.70;99.90;;;;;;5090732;28;20203;-62
2022/04/22 02:18:01;;;;;;;21.73;19.42;;;8.60;99.90;;;;;;5090894;28;20203;-61
2022/04/22 02:20:29;;;;;;;23.33;21.02;;;8.60;99.90;;;;;;5090686;28;20190;-62
2022/04/22 02:22:57;;;;;;;21.13;18.80;;;8.60;99.90;;;;;;5091827;28;20856;-61
2022/04/22 02:25:25;;;;;;;19.67;17.73;;;8.60;99.90;;;;;;5094648;28;20321;-61
2022/04/22 02:30:39;;;;;;;22.30;20.23;;;8.60;99.90;;;;;;5113210;28;20218;-61
2022/04/22 02:33:07;;;;;;;23.73;21.23;;;8.60;99.90;;;;;;5090206;28;20669;-61
2022/04/22 02:35:35;;;;;;;22.83;20.45;;;8.40;99.90;;;;;;5094075;28;20199;-61
2022/04/22 02:38:03;;;;;;;28.75;21.85;;;8.50;99.90;;;;;;5094299;28;20248;-60
2022/04/22 02:46:02;;;;;;;23.98;21.67;;;8.40;99.90;;;;;;5108060;28;20214;-61
2022/04/22 02:48:30;;;;;;;24.90;22.58;;;8.30;99.90;;;;;;5107255;28;20289;-61
2022/04/22 02:50:58;;;;;;;22.60;20.35;;;8.30;99.90;;;;;;5113484;28;20221;-61
2022/04/22 02:53:26;;;;;;;26.33;23.73;;;8.30;99.90;;;;;;5112952;28;20222;-61
2022/04/22 02:55:54;;;;;;;25.45;22.90;;;8.30;99.90;;;;;;5113351;28;20296;-61
2022/04/22 02:58:22;;;;;;;24.02;21.35;;;8.20;99.90;;;;;;5113290;28;20219;-61
2022/04/22 03:00:50;;;;;;;24.35;21.75;;;8.20;99.90;;;;;;5098343;28;20285;-61
2022/04/22 03:03:19;;;;;;;24.92;22.27;;;8.30;99.90;;;;;;5092991;28;20238;-61
2022/04/22 03:05:47;;;;;;;25.45;22.77;;;8.30;99.90;;;;;;5093434;28;20255;-61
2022/04/22 03:08:15;;;;;;;23.52;20.52;;;8.20;99.90;;;;;;5093846;28;20297;-61
2022/04/22 03:10:43;;;;;;;25.00;22.50;;;8.20;99.90;;;;;;5092728;28;20202;-61
2022/04/22 03:13:10;;;;;;;25.08;22.58;;;8.20;99.90;;;;;;5084389;28;20314;-61
2022/04/22 03:15:39;;;;;;;26.02;23.27;;;8.30;99.90;;;;;;5113096;28;21041;-61
2022/04/22 03:18:07;;;;;;;24.73;22.23;;;8.30;99.90;;;;;;5113298;28;20240;-61
2022/04/22 03:20:36;;;;;;;26.10;22.90;;;8.20;99.90;;;;;;5113136;28;20241;-61
2022/04/22 03:23:05;;;;;;;27.20;24.55;;;8.20;99.90;;;;;;5108333;28;20225;-61
2022/04/22 03:25:33;;;;;;;26.80;24.25;;;8.20;99.90;;;;;;5112609;28;20588;-61
2022/04/22 03:28:00;;;;;;;23.95;21.45;;;8.10;99.90;;;;;;5104846;28;20229;-61
2022/04/22 03:30:28;;;;;;;27.60;24.75;;;8.20;99.90;;;;;;5093412;28;20208;-61
2022/04/22 03:32:56;;;;;;;27.42;24.65;;;8.20;99.90;;;;;;5092250;28;20223;-61
2022/04/22 03:35:24;;;;;;;26.55;23.73;;;8.20;99.90;;;;;;5092505;28;20226;-61
2022/04/22 03:37:54;;;;;;;24.63;22.17;;;8.20;99.90;;;;;;5093092;28;20202;-61
2022/04/22 03:40:22;;;;;;;24.83;22.23;;;8.20;99.90;;;;;;5093081;28;20624;-61
2022/04/22 03:42:52;;;;;;;25.00;22.40;;;8.20;99.90;;;;;;5095446;28;20242;-61
2022/04/22 03:45:22;;;;;;;27.80;24.88;;;8.20;99.90;;;;;;5090888;28;20664;-61
2022/04/22 03:47:50;;;;;;;28.13;25.17;;;8.10;99.90;;;;;;5092941;28;20305;-61
2022/04/22 03:50:18;;;;;;;26.88;23.95;;;8.20;99.90;;;;;;5092764;28;20237;-61
2022/04/22 03:52:46;;;;;;;25.90;23.40;;;8.10;99.90;;;;;;5092037;28;20257;-61
2022/04/22 03:55:15;;;;;;;24.92;22.42;;;8.10;99.90;;;;;;5092707;28;20206;-61
2022/04/22 04:00:28;;;;;;;25.38;22.80;;;8.10;99.90;;;;;;5093111;28;20612;-61
2022/04/22 04:02:56;;;;;;;25.33;22.92;;;8.10;99.90;;;;;;5091624;28;20245;-61
2022/04/22 04:05:24;;;;;;;24.30;21.75;;;8.10;99.90;;;;;;5092548;28;20233;-61
2022/04/22 04:07:52;;;;;;;25.48;23.13;;;8.10;99.90;;;;;;5092475;28;20206;-61
2022/04/22 04:16:01;;;;;;;24.92;22.42;;;8.10;99.90;;;;;;5092334;28;20729;-62
2022/04/22 04:18:31;;;;;;;25.75;23.20;;;8.10;99.90;;;;;;5092394;28;20194;-62
2022/04/22 04:23:45;;;;;;;26.27;23.77;;;8.20;99.90;;;;;;5110910;28;20667;-61
2022/04/22 04:26:16;;;;;;;25.13;22.63;;;8.10;99.90;;;;;;5111586;28;20197;-60
2022/04/22 04:28:47;;;;;;;25.50;23.00;;;8.10;99.90;;;;;;5098206;28;20285;-60
2022/04/22 04:31:16;;;;;;;23.92;21.73;;;8.10;99.90;;;;;;5100563;28;20552;-61
2022/04/22 04:33:44;;;;;;;22.10;20.00;;;8.20;99.90;;;;;;5087419;28;21939;-61
2022/04/22 04:36:16;;;;;;;26.17;23.67;;;8.30;99.90;;;;;;5061621;28;20283;-60
2022/04/22 04:38:45;;;;;;;23.75;21.42;;;8.30;99.90;;;;;;5065108;28;20210;-61
2022/04/22 04:41:13;;;;;;;22.05;19.95;;;8.30;99.90;;;;;;5063174;28;20624;-60
2022/04/22 04:43:43;;;;;;;23.83;21.50;;;8.30;99.90;;;;;;5063750;28;20234;-60
2022/04/22 04:46:11;;;;;;;20.83;18.83;;;8.40;99.90;;;;;;5063743;28;20276;-60
2022/04/22 04:48:39;;;;;;;24.52;21.67;;;8.40;99.90;;;;;;5063157;28;20886;-60
2022/04/22 04:51:07;;;;;;;22.92;20.48;;;8.50;99.90;;;;;;5062314;28;20286;-60
2022/04/22 04:53:35;;;;;;;20.23;17.10;;;8.60;99.90;;;;;;5063011;28;20247;-60
2022/04/22 04:56:03;;;;;;;21.83;19.63;;;8.60;99.90;;;;;;5063983;28;20310;-61
2022/04/22 04:58:31;;;;;;;21.88;19.85;;;8.70;99.90;;;;;;5064792;28;20234;-60
2022/04/22 05:01:01;;;;;;;21.00;18.90;;;8.70;99.90;;;;;;5060091;28;20282;-60
2022/04/22 05:03:29;;;;;;;21.15;19.08;;;8.80;99.90;;;;;;5059015;28;20227;-61
2022/04/22 05:05:57;;;;;;;19.33;17.25;;;8.70;99.90;;;;;;5060740;28;20314;-60
2022/04/22 05:08:26;;;;;;;21.48;19.25;;;8.70;99.90;;;;;;5064134;28;20298;-60
2022/04/22 05:10:54;;;;;;;20.60;18.40;;;8.80;99.90;;;;;;5067320;28;20195;-59
2022/04/22 05:13:22;;;;;;;22.08;19.77;;;8.80;99.90;;;;;;5060969;28;21121;-60
2022/04/22 05:15:53;;;;;;;20.40;18.50;;;8.80;99.90;;;;;;5064988;28;20286;-60
2022/04/22 05:18:22;;;;;;;20.52;18.42;;;8.80;99.90;;;;;;5063215;28;20582;-60
2022/04/22 05:20:50;;;;;;;19.60;17.70;;;8.80;99.90;;;;;;5065365;28;20891;-59
2022/04/22 05:23:18;;;;;;;21.23;18.02;;;8.90;99.90;;;;;;5064651;28;20640;-60
2022/04/22 05:25:46;;;;;;;18.42;16.70;;;9.00;99.90;;;;;;5067093;28;20294;-58
2022/04/22 05:28:14;;;;;;;18.63;16.83;;;9.00;99.90;;;;;;5062049;28;20195;-59
2022/04/22 05:33:31;;;;;;;19.58;17.05;;;9.10;99.90;;;;;;5045873;28;20238;-59
2022/04/22 05:35:59;;;;;;;19.55;16.15;;;9.20;99.90;;;;;;5061958;28;21218;-60
2022/04/22 05:38:27;;;;;;;16.27;14.68;;;9.30;99.90;;;;;;5069783;28;20865;-59
2022/04/22 05:40:55;;;;;;;18.90;17.15;;;9.40;99.90;;;;;;5063966;28;20238;-60
2022/04/22 05:43:24;;;;;;;17.98;16.00;;;9.50;99.90;;;;;;5059958;28;20968;-59
2022/04/22 05:45:52;;;;;;;17.13;15.45;;;9.60;99.90;;;;;;5063976;28;21409;-60
2022/04/22 05:48:20;;;;;;;17.00;15.50;;;9.60;99.90;;;;;;5065513;28;20206;-59
2022/04/22 05:50:49;;;;;;;20.02;18.15;;;9.70;99.90;;;;;;5063965;28;20302;-60
2022/04/22 05:53:17;;;;;;;17.00;15.23;;;9.90;99.90;;;;;;5061410;28;20231;-59
2022/04/22 05:55:45;;;;;;;17.50;14.90;;;9.90;99.90;;;;;;5062351;28;20199;-59
2022/04/22 05:58:13;;;;;;;17.33;15.52;;;9.90;99.90;;;;;;5066214;28;20203;-59
2022/04/22 06:00:41;;;;;;;17.10;15.65;;;10.00;99.90;;;;;;5066736;28;20203;-60
2022/04/22 06:03:09;;;;;;;15.85;14.25;;;10.10;99.90;;;;;;5067362;28;20210;-59
2022/04/22 06:05:37;;;;;;;14.93;13.63;;;10.20;99.90;;;;;;5070977;28;20203;-59
2022/04/22 06:10:56;;;;;;;15.10;13.70;;;10.50;99.90;;;;;;5065302;28;20265;-60
2022/04/22 06:13:24;;;;;;;14.43;13.13;;;10.40;99.90;;;;;;5062581;28;20250;-59
2022/04/22 06:15:52;;;;;;;15.00;13.60;;;10.40;99.90;;;;;;5064447;28;20234;-59
2022/04/22 06:18:20;;;;;;;13.30;12.00;;;10.50;99.90;;;;;;5066270;28;21029;-60
2022/04/22 06:20:50;;;;;;;13.68;12.40;;;10.60;99.90;;;;;;5079506;28;20198;-60
2022/04/22 06:23:19;;;;;;;15.18;13.77;;;10.70;99.90;;;;;;5102147;28;20308;-60
2022/04/22 06:25:48;;;;;;;14.13;12.80;;;10.70;99.90;;;;;;5114124;28;20206;-62
2022/04/22 06:28:16;;;;;;;13.80;12.50;;;10.90;99.90;;;;;;5102564;28;20206;-61
2022/04/22 06:30:46;;;;;;;14.07;12.77;;;11.00;99.90;;;;;;5094349;28;20281;-62
2022/04/22 06:33:16;;;;;;;13.32;11.98;;;11.00;99.90;;;;;;5118870;22;20827;-68
2022/04/22 06:35:44;;;;;;;15.10;13.65;;;11.00;99.90;;;;;;5134228;27;20203;-71
2022/04/22 06:38:15;;;;;;;12.13;11.05;;;11.00;99.90;;;;;;5130169;27;20201;-70
2022/04/22 06:46:25;;;;;;;12.98;11.77;;;11.30;99.90;;;;;;5094383;27;20708;-70
2022/04/22 06:48:54;;;;;;;12.77;11.57;;;11.50;99.90;;;;;;5115653;27;20198;-70
2022/04/22 06:51:23;;;;;;;12.15;11.15;;;11.50;99.90;;;;;;5114340;27;20202;-71
2022/04/22 06:53:52;;;;;;;13.00;11.75;;;11.50;99.90;;;;;;5133029;27;20264;-70
2022/04/22 06:56:27;;;;;;;12.15;11.05;;;11.50;99.90;;;;;;5107609;27;20209;-70
2022/04/22 06:58:55;;;;;;;12.75;11.45;;;11.60;99.90;;;;;;5114274;27;20205;-70
2022/04/22 07:01:24;;;;;;;13.57;12.38;;;11.50;99.90;;;;;;5114419;27;20665;-70
2022/04/22 07:04:13;;;;;;;12.18;10.98;;;11.60;99.90;;;;;;5112578;28;20222;-70
2022/04/22 07:06:42;;;;;;;11.35;10.30;;;11.70;99.90;;;;;;5114001;27;20734;-70
2022/04/22 07:09:11;;;;;;;11.50;10.40;;;11.80;99.90;;;;;;5113140;27;20300;-70
2022/04/22 07:11:42;;;;;;;10.95;9.88;;;12.00;99.90;;;;;;5114194;27;20720;-70
2022/04/22 07:14:10;;;;;;;10.80;9.80;;;12.00;99.90;;;;;;5108534;28;20218;-70
2022/04/22 07:16:44;;;;;;;10.98;9.75;;;12.10;99.90;;;;;;5109290;27;20201;-71
2022/04/22 07:19:12;;;;;;;12.00;10.85;;;12.20;99.90;;;;;;5133835;27;20246;-70
2022/04/22 07:21:40;;;;;;;10.90;9.90;;;12.30;99.90;;;;;;5133195;27;20666;-70
2022/04/22 07:24:09;;;;;;;10.40;9.45;;;12.40;99.90;;;;;;5132693;27;20221;-71
2022/04/22 07:26:38;;;;;;;10.50;9.50;;;12.40;99.90;;;;;;5133514;27;20201;-70
2022/04/22 07:29:13;;;;;;;9.93;9.13;;;12.30;99.90;;;;;;5133246;27;20205;-69
2022/04/22 07:31:41;;;;;;;10.43;9.60;;;12.40;99.90;;;;;;5107007;27;20243;-71
2022/04/22 07:34:09;;;;;;;11.52;10.48;;;12.30;99.90;;;;;;5105917;28;20229;-70
2022/04/22 07:36:38;;;;;;;11.30;9.80;;;12.30;99.90;;;;;;5107160;27;20630;-70
2022/04/22 07:39:07;;;;;;;11.30;10.05;;;12.30;99.90;;;;;;5107646;27;20201;-70
2022/04/22 07:41:38;;;;;;;10.90;9.93;;;12.40;99.90;;;;;;5113347;27;20239;-70
2022/04/22 07:46:59;;;;;;;10.93;9.93;;;12.80;99.90;;;;;;5120824;27;20552;-71
2022/04/22 07:49:28;;;;;;;10.77;9.88;;;12.80;99.90;;;;;;5113652;27;20544;-70
2022/04/22 07:51:57;;;;;;;11.88;9.82;;;13.00;99.90;;;;;;5112762;27;20198;-71
2022/04/22 07:54:27;;;;;;;11.73;10.65;;;13.20;99.90;;;;;;5112705;28;20226;-70
2022/04/22 07:56:56;;;;;;;10.38;9.48;;;13.30;99.90;;;;;;5113252;28;20208;-71
2022/04/22 07:59:28;;;;;;;10.50;9.50;;;13.40;99.90;;;;;;5113246;27;20209;-67
2022/04/22 08:01:58;;;;;;;11.27;10.18;;;13.50;99.90;;;;;;5112886;27;20251;-69
2022/04/22 08:04:28;;;;;;;9.80;8.98;;;13.70;99.90;;;;;;5113096;27;20232;-67
2022/04/22 08:06:56;;;;;;;10.15;9.25;;;13.70;99.90;;;;;;5112748;27;20198;-69
2022/04/22 08:09:45;;;;;;;9.85;8.68;;;13.90;99.90;;;;;;5112977;27;20289;-70
2022/04/22 08:12:15;;;;;;;9.00;8.20;;;14.10;99.90;;;;;;5112103;27;20210;-70
2022/04/22 08:14:44;;;;;;;10.02;9.13;;;14.10;99.90;;;;;;5106645;27;20252;-70
2022/04/22 08:17:12;;;;;;;9.32;8.40;;;14.20;99.90;;;;;;5114591;27;20266;-70
2022/04/22 08:19:43;;;;;;;9.05;8.30;;;14.40;99.90;;;;;;5132145;27;20319;-70
2022/04/22 08:22:11;;;;;;;9.93;8.95;;;14.70;99.90;;;;;;5131518;27;20266;-70
2022/04/22 08:24:39;;;;;;;8.45;7.72;;;14.80;99.90;;;;;;5132280;27;20243;-70
2022/04/22 08:27:08;;;;;;;9.10;8.40;;;14.90;99.90;;;;;;5132506;27;20233;-69
2022/04/22 08:29:36;;;;;;;8.93;8.18;;;14.90;99.90;;;;;;5131909;27;20226;-69
2022/04/22 08:32:07;;;;;;;9.18;8.43;;;15.00;99.90;;;;;;5131390;27;20203;-69
2022/04/22 08:34:34;;;;;;;8.95;8.20;;;15.20;99.90;;;;;;5131692;27;20315;-70
2022/04/22 08:37:03;;;;;;;9.25;8.43;;;15.30;99.90;;;;;;5132270;27;20198;-69
2022/04/22 08:39:31;;;;;;;9.48;8.35;;;15.40;99.90;;;;;;5132062;27;20197;-70
2022/04/22 08:42:02;;;;;;;8.30;7.60;;;15.30;99.90;;;;;;5131296;27;20666;-66
2022/04/22 08:44:50;;;;;;;10.15;8.57;;;15.40;99.90;;;;;;5123304;27;20290;-70
2022/04/22 08:50:13;;;;;;;8.10;7.30;;;15.40;99.90;;;;;;5112291;27;20197;-69
2022/04/22 08:52:43;;;;;;;9.77;8.98;;;15.50;99.90;;;;;;5110835;27;20205;-70
2022/04/22 08:55:13;;;;;;;10.35;9.45;;;15.60;99.90;;;;;;5111856;28;20226;-70
2022/04/22 08:57:43;;;;;;;8.52;7.82;;;15.80;99.90;;;;;;5112195;28;20198;-70
2022/04/22 09:00:12;;;;;;;9.00;8.20;;;16.00;99.90;;;;;;5111890;28;20242;-69
2022/04/22 09:02:42;;;;;;;8.93;8.23;;;16.00;99.90;;;;;;5111301;28;20654;-69
2022/04/22 09:05:10;;;;;;;9.38;8.48;;;16.20;99.90;;;;;;5111474;27;20225;-69
2022/04/22 09:07:42;;;;;;;8.25;7.57;;;16.30;99.90;;;;;;5112175;27;20232;-69
2022/04/22 09:10:11;;;;;;;8.85;8.10;;;16.40;99.90;;;;;;5111930;27;20205;-70
2022/04/22 09:12:43;;;;;;;9.90;9.00;;;16.70;99.90;;;;;;5111084;28;20193;-70
2022/04/22 09:15:11;;;;;;;8.60;7.80;;;16.90;99.90;;;;;;5097562;27;20233;-70
2022/04/22 09:17:39;;;;;;;8.88;8.15;;;16.90;99.90;;;;;;5137330;27;20636;-70
2022/04/22 09:20:15;;;;;;;8.43;7.72;;;16.80;99.90;;;;;;5105505;28;20258;-70
2022/04/22 09:22:45;;;;;;;7.88;7.28;;;17.00;99.90;;;;;;5105310;28;20280;-70
2022/04/22 09:25:22;;;;;;;8.30;7.70;;;17.20;99.90;;;;;;5111888;28;20526;-71
2022/04/22 09:27:50;;;;;;;8.50;7.80;;;17.20;99.90;;;;;;5111533;28;20262;-70
2022/04/22 09:30:28;;;;;;;8.15;7.50;;;17.20;99.90;;;;;;5111728;28;20628;-69
2022/04/22 09:32:56;;;;;;;12.93;6.90;;;17.20;99.90;;;;;;5112962;27;20209;-70
2022/04/22 09:35:28;;;;;;;8.38;7.68;;;17.60;99.90;;;;;;5116053;27;20221;-70
2022/04/22 09:43:33;;;;;;;8.90;8.10;;;18.00;97.90;;;;;;5114704;27;20714;-70
2022/04/22 09:46:02;;;;;;;7.20;6.50;;;18.20;98.30;;;;;;5116847;27;20737;-70
2022/04/22 09:48:44;;;;;;;7.60;6.65;;;18.40;97.90;;;;;;5114532;27;20242;-70
2022/04/22 09:51:24;;;;;;;8.02;7.28;;;18.30;96.60;;;;;;5115603;27;20198;-70
2022/04/22 09:54:01;;;;;;;8.15;7.47;;;18.20;96.40;;;;;;5108474;27;20241;-69
2022/04/22 09:56:29;;;;;;;8.15;7.45;;;18.20;97.00;;;;;;5115591;27;20202;-70
2022/04/22 09:58:58;;;;;;;10.00;6.45;;;18.30;97.40;;;;;;5115624;27;20613;-70
2022/04/22 10:01:26;;;;;;;7.20;6.50;;;18.40;96.80;;;;;;5114789;28;20229;-70
2022/04/22 10:04:15;;;;;;;9.30;8.00;;;18.70;97.00;;;;;;5114465;28;20221;-69
2022/04/22 10:06:45;;;;;;;11.10;8.20;;;18.70;95.90;;;;;;5115353;27;20202;-69
2022/04/22 10:09:15;;;;;;;7.95;6.97;;;18.70;95.70;;;;;;5115313;27;20293;-70
2022/04/22 10:11:43;;;;;;;7.90;7.30;;;18.70;95.80;;;;;;5114847;27;20205;-69
2022/04/22 10:14:12;;;;;;;7.10;6.57;;;19.00;95.40;;;;;;5109504;27;20648;-72
2022/04/22 10:16:41;;;;;;;7.28;6.78;;;19.00;95.30;;;;;;5113712;27;20221;-70
2022/04/22 10:19:10;;;;;;;8.32;7.07;;;19.10;94.80;;;;;;5134874;27;20273;-70
2022/04/22 10:21:40;;;;;;;6.80;6.20;;;18.90;94.70;;;;;;5134653;27;20284;-70
2022/04/22 10:24:12;;;;;;;7.68;6.43;;;19.00;94.90;;;;;;5134026;27;20213;-70
2022/04/22 10:26:40;;;;;;;7.30;6.65;;;19.20;95.00;;;;;;5108156;27;20205;-70
2022/04/22 10:29:09;;;;;;;9.40;7.20;;;19.50;94.60;;;;;;5115110;27;20228;-71
2022/04/22 10:31:37;;;;;;;7.63;6.85;;;19.60;94.80;;;;;;5108345;28;20553;-71
2022/04/22 10:34:07;;;;;;;7.05;6.35;;;19.60;94.00;;;;;;5107011;27;20324;-70
2022/04/22 10:36:35;;;;;;;7.38;6.55;;;19.40;93.90;;;;;;5108515;27;20316;-69
2022/04/22 10:39:03;;;;;;;7.18;6.47;;;19.40;93.90;;;;;;5114615;27;20670;-70
2022/04/22 10:41:45;;;;;;;7.10;6.60;;;19.30;94.20;;;;;;5114588;27;20572;-69
2022/04/22 10:47:16;;;;;;;8.50;7.22;;;19.70;93.70;;;;;;5055931;28;20223;-70
2022/04/22 10:49:45;;;;;;;6.00;5.60;;;19.90;93.70;;;;;;5102136;27;20619;-70
2022/04/22 10:52:14;;;;;;;7.47;6.88;;;20.10;92.90;;;;;;5106995;28;20713;-70
2022/04/22 10:55:08;;;;;;;7.35;6.03;;;20.20;92.90;;;;;;5107353;27;20222;-71
2022/04/22 10:57:42;;;;;;;6.28;5.88;;;20.20;93.00;;;;;;5114564;27;20237;-71
2022/04/22 11:00:29;;;;;;;6.43;5.50;;;20.50;92.60;;;;;;5114241;27;20202;-70
2022/04/22 11:03:03;;;;;;;6.72;6.07;;;20.90;92.20;;;;;;5122841;27;20240;-71
2022/04/22 11:05:38;;;;;;;6.30;5.80;;;21.10;90.90;;;;;;5114301;27;20209;-71
2022/04/22 11:08:08;;;;;;;6.32;5.82;;;21.00;91.30;;;;;;5114140;27;20201;-70
2022/04/22 11:10:59;;;;;;;5.43;5.03;;;21.00;90.80;;;;;;5114332;27;20231;-68
2022/04/22 11:13:30;;;;;;;5.82;5.32;;;21.00;90.70;;;;;;5113010;27;20735;-71
2022/04/22 11:15:58;;;;;;;5.40;4.97;;;20.80;90.60;;;;;;5109928;27;20257;-70
2022/04/22 11:18:27;;;;;;;6.57;5.55;;;20.70;90.50;;;;;;5124994;27;20213;-70
2022/04/22 11:21:02;;;;;;;5.50;4.90;;;20.60;89.90;;;;;;5121098;27;20206;-70
2022/04/22 11:23:38;;;;;;;6.43;5.82;;;21.00;90.50;;;;;;5107203;28;20324;-70
2022/04/22 11:26:06;;;;;;;6.93;6.20;;;21.20;90.60;;;;;;5114075;27;20206;-70
2022/04/22 11:28:37;;;;;;;6.40;5.72;;;21.00;90.00;;;;;;5113901;27;20297;-71
2022/04/22 11:31:07;;;;;;;6.22;5.72;;;20.90;90.30;;;;;;5113691;28;20244;-71
2022/04/22 11:33:45;;;;;;;6.47;5.85;;;20.90;91.30;;;;;;5112309;28;20337;-71
2022/04/22 11:36:13;;;;;;;8.23;7.50;;;21.10;90.30;;;;;;5113323;27;20241;-70
2022/04/22 11:38:48;;;;;;;7.38;6.30;;;21.10;89.20;;;;;;5113529;27;20730;-71
2022/04/22 11:41:16;;;;;;;6.10;5.60;;;21.10;90.30;;;;;;5113836;27;20280;-70
2022/04/22 11:43:47;;;;;;;6.95;6.32;;;21.50;90.50;;;;;;5112562;27;20226;-70
2022/04/22 11:46:16;;;;;;;6.25;5.78;;;21.50;89.40;;;;;;5119800;27;20186;-69
2022/04/22 11:48:53;;;;;;;6.10;5.65;;;21.50;89.40;;;;;;5110543;27;20202;-70
2022/04/22 11:51:22;;;;;;;6.18;5.57;;;21.20;89.40;;;;;;5133209;27;20254;-70
2022/04/22 11:53:52;;;;;;;7.13;6.53;;;21.40;90.20;;;;;;5105228;27;20537;-70
2022/04/22 11:56:21;;;;;;;6.50;5.90;;;21.50;88.90;;;;;;5106235;27;20213;-70
2022/04/22 11:58:55;;;;;;;6.85;5.35;;;21.40;88.50;;;;;;5113091;27;20762;-70
2022/04/22 12:06:58;;;;;;;5.72;5.22;;;21.60;88.10;;;;;;5106311;27;20198;-69
2022/04/22 12:09:26;;;;;;;5.55;5.05;;;21.90;88.60;;;;;;5106108;27;20202;-70
2022/04/22 12:11:57;;;;;;;6.65;6.05;;;22.10;89.70;;;;;;5106173;28;21327;-70
2022/04/22 12:14:28;;;;;;;5.72;5.20;;;22.30;84.90;;;;;;5112407;28;20222;-69
2022/04/22 12:16:57;;;;;;;6.18;5.72;;;21.70;85.20;;;;;;5106288;27;20249;-69
2022/04/22 12:19:27;;;;;;;5.88;5.35;;;21.20;85.90;;;;;;5132299;27;20203;-70
2022/04/22 12:21:55;;;;;;;6.15;5.55;;;21.30;86.70;;;;;;5132102;27;20236;-67
2022/04/22 12:24:23;;;;;;;7.47;6.13;;;21.60;86.30;;;;;;5132308;27;20281;-70
2022/04/22 12:26:52;;;;;;;6.25;5.65;;;21.90;87.00;;;;;;5132096;27;20246;-69
2022/04/22 12:29:22;;;;;;;6.80;6.20;;;22.00;86.00;;;;;;5132268;27;20205;-71
2022/04/22 12:31:55;;;;;;;5.63;5.13;;;22.00;85.70;;;;;;5132336;27;20538;-70
2022/04/22 12:34:28;;;;;;;6.40;5.80;;;22.10;86.60;;;;;;5140795;23;20234;-63
2022/04/22 12:36:58;;;;;;;7.20;5.72;;;22.30;85.70;;;;;;5111904;28;20218;-64
2022/04/22 12:39:34;;;;;;;6.35;5.85;;;22.50;84.80;;;;;;5111812;28;20235;-63
2022/04/22 12:42:03;;;;;;;6.57;6.07;;;22.10;84.80;;;;;;5111196;28;20271;-63
2022/04/22 12:44:31;;;;;;;6.22;5.72;;;22.10;85.00;;;;;;5101460;28;20325;-63
2022/04/22 12:52:46;;;;;;;6.50;5.90;;;22.00;84.20;;;;;;5090846;28;20210;-62
2022/04/22 12:55:17;;;;;;;5.93;5.32;;;21.80;85.00;;;;;;5091253;28;20252;-62
2022/04/22 12:57:57;;;;;;;7.03;6.43;;;21.40;84.10;;;;;;5090951;28;20710;-62
2022/04/22 13:00:26;;;;;;;6.40;5.80;;;20.80;85.40;;;;;;5091322;28;20201;-62
2022/04/22 13:03:11;;;;;;;7.57;6.88;;;20.80;86.50;;;;;;5090429;28;20229;-63
2022/04/22 13:05:39;;;;;;;7.60;7.05;;;21.30;86.90;;;;;;5091045;28;20283;-62
2022/04/22 13:08:11;;;;;;;7.15;6.47;;;21.50;86.70;;;;;;5090473;28;20297;-63
2022/04/22 13:10:40;;;;;;;5.57;5.07;;;21.80;86.20;;;;;;5091256;28;20210;-63
2022/04/22 13:13:11;;;;;;;4.93;4.63;;;22.20;85.70;;;;;;5089939;28;20217;-63
2022/04/22 13:15:39;;;;;;;4.95;4.60;;;22.30;83.90;;;;;;5085883;28;20210;-62
2022/04/22 13:18:07;;;;;;;6.47;5.85;;;22.30;81.90;;;;;;5086992;28;20258;-62
2022/04/22 13:20:36;;;;;;;5.40;5.00;;;22.30;82.50;;;;;;5091050;28;20289;-62
2022/04/22 13:23:04;;;;;;;5.13;4.18;;;22.40;83.30;;;;;;5089898;28;20290;-62
2022/04/22 13:25:32;;;;;;;5.15;4.72;;;22.70;83.40;;;;;;5090625;28;20257;-63
2022/04/22 13:28:00;;;;;;;5.78;5.28;;;23.10;81.90;;;;;;5090903;28;20231;-63
2022/04/22 13:30:28;;;;;;;6.03;4.55;;;23.30;81.50;;;;;;5090570;28;20205;-63
2022/04/22 13:32:56;;;;;;;5.72;5.32;;;23.20;82.50;;;;;;5090122;28;20285;-63
2022/04/22 13:35:24;;;;;;;5.30;4.90;;;23.20;81.30;;;;;;5090335;28;20303;-63
2022/04/22 13:37:53;;;;;;;4.30;3.90;;;23.20;81.10;;;;;;5090761;28;20262;-63
2022/04/22 13:40:21;;;;;;;5.57;5.10;;;23.40;81.20;;;;;;5090633;28;20202;-63
2022/04/22 13:42:49;;;;;;;5.80;5.40;;;23.40;79.50;;;;;;5090033;28;20206;-63
2022/04/22 13:53:35;;;;;;;5.07;4.68;;;22.50;80.50;;;;;;5089771;28;20245;-62
2022/04/22 13:56:03;;;;;;;6.20;5.63;;;22.50;81.10;;;;;;5090872;28;20512;-63
2022/04/22 13:58:33;;;;;;;6.00;5.60;;;22.10;81.00;;;;;;5090446;28;20649;-64
2022/04/22 14:01:02;;;;;;;5.20;4.80;;;22.20;81.70;;;;;;5090165;28;20206;-63
2022/04/22 14:03:30;;;;;;;5.80;5.30;;;22.20;80.10;;;;;;5089626;28;20285;-63